Time;durP1;ratioP1;P1;durP2;ratioP2;P2;SDS_P1;SDS_P2;PMS_P1;PMS_P2;Temp;Humidity;BMP_temperature;BMP_pressure;BME280_temperature;BME280_humidity;BME280_pressure;Samples;Min_cycle;Max_cycle;Signal;HPM_P1;HPM_P2
2023/01/09 00:02:20;;;;;;;20.60;7.47;;;;;;;6.46;100.00;96151.25;5066007;28;20036;-87
2023/01/09 00:04:45;;;;;;;18.27;7.88;;;;;;;6.27;100.00;96153.31;5067831;28;20026;-88
2023/01/09 00:07:11;;;;;;;16.65;6.38;;;;;;;5.97;100.00;96138.78;5063087;28;20035;-88
2023/01/09 00:09:36;;;;;;;21.95;7.22;;;;;;;6.22;100.00;96158.44;5066012;28;20086;-87
2023/01/09 00:12:02;;;;;;;22.88;6.50;;;;;;;6.51;100.00;96159.13;5064199;28;20032;-88
2023/01/09 00:14:28;;;;;;;20.98;5.95;;;;;;;6.46;100.00;96164.28;5063849;28;20111;-89
2023/01/09 00:16:55;;;;;;;14.98;5.35;;;;;;;6.50;100.00;96173.19;5061273;28;20127;-86
2023/01/09 00:19:20;;;;;;;12.20;5.00;;;;;;;6.63;100.00;96179.88;5063228;28;20107;-88
2023/01/09 00:21:46;;;;;;;17.08;5.00;;;;;;;6.39;100.00;96176.69;5062194;28;20059;-87
2023/01/09 00:24:12;;;;;;;12.93;4.88;;;;;;;6.28;100.00;96175.72;5063070;28;20056;-87
2023/01/09 00:26:37;;;;;;;18.42;5.55;;;;;;;6.61;100.00;96184.53;5062728;28;20038;-88
2023/01/09 00:29:03;;;;;;;16.02;6.80;;;;;;;6.47;100.00;96157.22;5066560;28;20025;-88
2023/01/09 00:31:29;;;;;;;21.23;8.13;;;;;;;6.61;100.00;96178.56;5063909;28;22059;-88
2023/01/09 00:34:12;;;;;;;21.75;9.23;;;;;;;6.61;100.00;96191.59;5065900;28;20036;-87
2023/01/09 00:36:38;;;;;;;;;;;;;;;6.70;100.00;96193.53;5063974;28;20028;-87
2023/01/09 00:39:04;;;;;;;12.05;5.90;;;;;;;6.45;100.00;96195.75;5060714;28;19919;-88
2023/01/09 00:41:33;;;;;;;18.92;6.80;;;;;;;6.56;100.00;96163.63;5062086;28;20067;-88
2023/01/09 00:44:05;;;;;;;17.88;7.20;;;;;;;6.83;100.00;96171.56;5062030;28;20033;-88
2023/01/09 00:46:36;;;;;;;21.20;7.63;;;;;;;6.80;100.00;96197.31;5063695;28;20032;-87
2023/01/09 00:49:04;;;;;;;15.50;4.97;;;;;;;6.66;100.00;96194.25;5062670;28;20471;-88
2023/01/09 00:51:30;;;;;;;14.57;5.45;;;;;;;6.82;100.00;96192.63;5044105;28;20116;-89
2023/01/09 00:53:57;;;;;;;15.32;4.75;;;;;;;6.87;100.00;96203.13;5063732;28;20118;-89
2023/01/09 00:56:22;;;;;;;10.85;4.22;;;;;;;6.48;100.00;96193.47;5061798;28;20036;-89
2023/01/09 00:58:50;;;;;;;12.88;4.78;;;;;;;6.70;100.00;96211.78;5060655;28;20386;-87
2023/01/09 01:01:15;;;;;;;15.68;4.38;;;;;;;7.03;100.00;96205.94;5060963;28;20136;-89
2023/01/09 01:03:41;;;;;;;17.55;4.93;;;;;;;6.74;100.00;96211.31;5081164;28;20061;-87
2023/01/09 01:08:54;;;;;;;16.70;4.30;;;;;;;6.75;100.00;96205.84;5062973;28;20040;-89
2023/01/09 01:11:20;;;;;;;14.25;4.72;;;;;;;7.05;100.00;96227.34;5059550;28;20068;-88
2023/01/09 01:13:46;;;;;;;15.85;4.88;;;;;;;6.92;100.00;96225.88;5063689;28;20059;-87
2023/01/09 01:16:12;;;;;;;19.95;4.80;;;;;;;7.00;100.00;96234.09;5063064;28;20028;-89
2023/01/09 01:18:39;;;;;;;19.30;5.53;;;;;;;6.97;100.00;96234.56;5061696;28;20079;-88
2023/01/09 01:21:10;;;;;;;19.13;5.07;;;;;;;6.69;100.00;96244.09;5061229;28;20021;-87
2023/01/09 01:23:36;;;;;;;11.40;5.28;;;;;;;6.93;100.00;96249.13;5042294;28;20021;-88
2023/01/09 01:26:08;;;;;;;16.55;5.80;;;;;;;6.85;100.00;96252.13;5057650;28;20029;-88
2023/01/09 01:28:33;;;;;;;14.55;5.63;;;;;;;6.84;100.00;96245.31;5060140;28;20521;-88
2023/01/09 01:31:00;;;;;;;19.23;5.47;;;;;;;7.14;100.00;96249.41;5065434;28;20029;-87
2023/01/09 01:33:26;;;;;;;13.57;5.78;;;;;;;7.20;100.00;96252.88;5068990;28;20044;-87
2023/01/09 01:36:02;;;;;;;18.30;5.60;;;;;;;7.31;100.00;96248.56;5061670;28;20028;-86
2023/01/09 01:38:29;;;;;;;15.68;6.40;;;;;;;6.93;100.00;96245.72;5061934;28;20032;-87
2023/01/09 01:40:54;;;;;;;9.68;5.43;;;;;;;7.33;100.00;96247.28;5065853;28;20052;-87
2023/01/09 01:43:20;;;;;;;18.00;5.40;;;;;;;7.41;100.00;96254.69;5064367;28;20129;-86
2023/01/09 01:45:46;;;;;;;19.38;6.40;;;;;;;7.15;100.00;96250.97;5069115;28;20474;-88
2023/01/09 01:48:16;;;;;;;16.77;5.65;;;;;;;7.35;100.00;96258.25;5067254;28;20021;-89
2023/01/09 01:51:01;;;;;;;15.88;5.82;;;;;;;7.31;100.00;96272.03;5070998;28;20029;-88
2023/01/09 01:53:36;;;;;;;10.50;4.63;;;;;;;7.26;100.00;96268.31;5063729;28;20037;-89
2023/01/09 01:56:09;;;;;;;12.57;5.60;;;;;;;6.94;100.00;96279.38;5063182;28;20033;-89
2023/01/09 01:58:42;;;;;;;19.88;6.53;;;;;;;7.26;100.00;96276.16;5063930;28;20032;-89
2023/01/09 02:01:08;;;;;;;15.35;5.68;;;;;;;7.09;100.00;96275.41;5066924;28;20036;-89
2023/01/09 02:03:36;;;;;;;17.42;5.57;;;;;;;7.07;100.00;96287.88;5066887;28;20025;-87
2023/01/09 02:06:03;;;;;;;16.27;5.60;;;;;;;7.40;100.00;96286.25;5069242;28;20025;-89
2023/01/09 02:08:30;;;;;;;15.45;5.90;;;;;;;7.07;100.00;96291.28;5062165;28;20048;-88
2023/01/09 02:10:56;;;;;;;24.52;6.35;;;;;;;7.38;100.00;96290.91;5066690;28;20082;-90
2023/01/09 02:13:24;;;;;;;13.23;5.88;;;;;;;7.30;100.00;96297.34;5068372;28;20078;-88
2023/01/09 02:16:04;;;;;;;14.95;6.68;;;;;;;7.62;100.00;96311.56;5061626;28;20048;-89
2023/01/09 02:18:37;;;;;;;21.38;7.47;;;;;;;7.57;100.00;96305.25;5065779;28;20096;-89
2023/01/09 02:21:30;;;;;;;27.10;8.00;;;;;;;7.26;100.00;96323.09;5066801;28;20437;-89
2023/01/09 02:24:14;;;;;;;20.02;7.30;;;;;;;7.18;100.00;96318.31;5066213;28;20040;-88
2023/01/09 02:26:50;;;;;;;17.55;5.93;;;;;;;7.21;100.00;96317.81;5066333;28;20513;-89
2023/01/09 02:29:51;;;;;;;16.50;5.95;;;;;;;7.11;100.00;96315.88;5069181;28;20029;-90
2023/01/09 02:32:26;;;;;;;16.33;5.28;;;;;;;7.56;100.00;96329.78;5067803;28;20040;-87
2023/01/09 02:35:30;;;;;;;16.35;5.88;;;;;;;7.29;100.00;96338.31;5065662;28;20747;-90
2023/01/09 02:38:04;;;;;;;20.55;5.63;;;;;;;7.20;100.00;96331.91;5039033;28;20036;-88
2023/01/09 02:40:37;;;;;;;18.00;4.82;;;;;;;7.55;100.00;96332.63;5059589;28;20032;-89
2023/01/09 02:43:05;;;;;;;11.52;4.80;;;;;;;7.51;100.00;96353.22;5059812;28;20036;-90
2023/01/09 02:45:30;;;;;;;23.52;4.95;;;;;;;7.82;100.00;96348.34;5059063;28;20111;-88
2023/01/09 02:47:56;;;;;;;19.63;5.15;;;;;;;7.39;100.00;96349.91;5064501;28;20122;-89
2023/01/09 02:50:44;;;;;;;19.73;5.63;;;;;;;7.36;100.00;96332.13;5065857;28;20043;-88
2023/01/09 02:53:15;;;;;;;14.68;4.97;;;;;;;7.72;100.00;96354.25;5048877;28;20424;-88
2023/01/09 02:56:10;;;;;;;17.08;5.18;;;;;;;7.68;100.00;96355.00;5066599;28;20040;-87
2023/01/09 02:58:54;;;;;;;;;;;;;;;7.41;100.00;96359.09;5062852;28;20098;-88
2023/01/09 03:01:23;;;;;;;13.27;6.35;;;;;;;7.46;100.00;96365.41;5066636;28;20370;-88
2023/01/09 03:03:57;;;;;;;19.92;6.43;;;;;;;7.57;100.00;96375.72;5060652;28;20414;-87
2023/01/09 03:06:41;;;;;;;25.90;5.93;;;;;;;7.89;100.00;96365.69;5058916;28;20077;-88
2023/01/09 03:09:13;;;;;;;15.77;5.43;;;;;;;7.54;100.00;96373.59;5066244;28;20025;-88
2023/01/09 03:11:42;;;;;;;;;;;;;;;7.33;100.00;96376.97;5065137;28;20490;-87
2023/01/09 03:14:18;;;;;;;16.65;5.30;;;;;;;7.49;100.00;96373.53;5068652;28;20286;-87
2023/01/09 03:16:47;;;;;;;29.70;6.13;;;;;;;7.53;100.00;96387.69;5062115;28;20029;-89
2023/01/09 03:19:17;;;;;;;18.45;5.47;;;;;;;7.37;100.00;96393.72;5062451;28;20032;-87
2023/01/09 03:21:45;;;;;;;16.95;5.53;;;;;;;7.61;100.00;96383.88;5062619;28;20033;-87
2023/01/09 03:24:10;;;;;;;17.52;5.45;;;;;;;7.68;100.00;96386.31;5064209;28;20028;-87
2023/01/09 03:26:36;;;;;;;17.63;5.30;;;;;;;7.78;100.00;96378.59;5064175;28;20441;-88
2023/01/09 03:29:02;;;;;;;8.77;4.75;;;;;;;7.53;100.00;96382.47;5064482;28;20147;-88
2023/01/09 03:31:28;;;;;;;15.77;4.55;;;;;;;7.76;100.00;96390.31;5064990;28;20416;-88
2023/01/09 03:33:54;;;;;;;21.77;4.82;;;;;;;7.57;100.00;96380.94;5065775;28;20047;-88
2023/01/09 03:36:20;;;;;;;21.08;5.22;;;;;;;7.52;100.00;96406.19;5066109;28;20120;-88
2023/01/09 03:38:47;;;;;;;13.88;3.95;;;;;;;7.57;100.00;96406.28;5049288;28;20032;-87
2023/01/09 03:41:13;;;;;;;20.77;4.60;;;;;;;7.29;100.00;96402.72;5062650;28;20134;-88
2023/01/09 03:43:39;;;;;;;12.60;4.03;;;;;;;7.37;100.00;96398.94;5045443;28;20029;-89
2023/01/09 03:46:05;;;;;;;14.40;4.10;;;;;;;7.63;100.00;96394.06;5049182;28;20040;-88
2023/01/09 03:48:31;;;;;;;16.92;4.72;;;;;;;7.41;100.00;96415.69;5067109;28;20033;-89
2023/01/09 03:50:57;;;;;;;18.15;6.78;;;;;;;7.27;100.00;96400.38;5067909;28;20047;-88
2023/01/09 03:53:25;;;;;;;17.58;4.68;;;;;;;7.44;100.00;96423.03;5065506;28;20113;-88
2023/01/09 03:55:53;;;;;;;23.67;5.47;;;;;;;7.33;100.00;96432.53;5063701;28;20024;-88
2023/01/09 03:58:19;;;;;;;18.38;7.30;;;;;;;7.57;100.00;96425.31;5068938;28;20036;-88
2023/01/09 04:00:47;;;;;;;20.00;4.70;;;;;;;7.35;100.00;96434.91;5066111;28;20044;-87
2023/01/09 04:03:16;;;;;;;19.98;5.93;;;;;;;7.59;100.00;96451.22;5065554;28;20056;-89
2023/01/09 04:05:43;;;;;;;13.52;4.80;;;;;;;7.43;100.00;96444.94;5065399;28;20030;-89
2023/01/09 04:08:08;;;;;;;22.60;4.85;;;;;;;7.50;100.00;96440.38;5061634;28;20042;-90
2023/01/09 04:10:34;;;;;;;16.33;4.60;;;;;;;7.73;100.00;96464.72;5045872;28;20024;-89
2023/01/09 04:13:00;;;;;;;17.10;5.05;;;;;;;7.42;100.00;96454.63;5067209;28;20482;-90
2023/01/09 04:15:26;;;;;;;22.23;5.63;;;;;;;7.54;100.00;96462.34;5065430;28;20119;-90
2023/01/09 04:17:51;;;;;;;17.13;5.05;;;;;;;7.72;100.00;96478.81;5064201;28;20021;-89
2023/01/09 04:20:30;;;;;;;16.67;4.78;;;;;;;7.69;100.00;96453.19;5060960;28;20053;-89
2023/01/09 04:22:58;;;;;;;25.88;5.68;;;;;;;7.63;100.00;96454.09;5064214;28;20465;-90
2023/01/09 04:25:33;;;;;;;19.60;4.97;;;;;;;7.28;100.00;96475.03;5048774;28;20028;-89
2023/01/09 04:27:58;;;;;;;16.80;4.97;;;;;;;7.04;100.00;96476.16;5061516;28;20021;-88
2023/01/09 04:30:24;;;;;;;19.02;5.28;;;;;;;7.80;100.00;96483.59;5059990;28;20091;-88
2023/01/09 04:32:50;;;;;;;17.92;5.25;;;;;;;7.57;100.00;96479.38;5065783;28;20028;-89
2023/01/09 04:35:17;;;;;;;12.02;4.22;;;;;;;7.15;100.00;96480.53;5060252;28;20116;-89
2023/01/09 04:37:43;;;;;;;12.93;4.20;;;;;;;7.20;100.00;96483.22;5064892;28;20036;-87
2023/01/09 04:40:16;;;;;;;21.90;4.93;;;;;;;7.00;100.00;96483.69;5061618;28;20025;-88
2023/01/09 04:42:44;;;;;;;14.05;3.97;;;;;;;7.02;100.00;96486.84;5061100;28;20028;-87
2023/01/09 04:45:10;;;;;;;13.93;3.90;;;;;;;7.26;100.00;96482.25;5061564;28;20027;-88
2023/01/09 04:47:36;;;;;;;12.80;4.07;;;;;;;6.95;100.00;96486.97;5065417;28;20028;-87
2023/01/09 04:50:11;;;;;;;12.35;3.38;;;;;;;6.96;100.00;96503.41;5049506;28;20028;-88
2023/01/09 04:52:38;;;;;;;12.45;3.20;;;;;;;7.11;100.00;96497.69;5062477;28;20032;-86
2023/01/09 04:55:06;;;;;;;15.35;4.05;;;;;;;6.96;100.00;96499.00;5064679;28;20021;-88
2023/01/09 04:57:33;;;;;;;14.65;3.90;;;;;;;7.15;100.00;96517.06;5064788;28;20032;-86
2023/01/09 05:00:01;;;;;;;17.00;3.58;;;;;;;7.07;100.00;96501.78;5067002;28;20040;-87
2023/01/09 05:02:32;;;;;;;10.82;2.97;;;;;;;6.98;100.00;96502.16;5062704;28;20475;-87
2023/01/09 05:04:57;;;;;;;15.00;2.95;;;;;;;6.82;100.00;96510.72;5064266;28;20038;-88
2023/01/09 05:07:23;;;;;;;14.60;3.42;;;;;;;6.96;100.00;96513.84;5061871;28;20036;-87
2023/01/09 05:09:48;;;;;;;17.63;3.25;;;;;;;6.88;100.00;96516.84;5065254;28;20033;-87
2023/01/09 05:12:15;;;;;;;13.82;3.35;;;;;;;6.82;100.00;96526.38;5062943;28;20403;-86
2023/01/09 05:14:40;;;;;;;16.02;3.25;;;;;;;6.90;100.00;96512.97;5063387;28;20028;-89
2023/01/09 05:17:06;;;;;;;13.63;2.80;;;;;;;6.77;100.00;96532.28;5048384;28;20169;-88
2023/01/09 05:19:33;;;;;;;9.45;3.05;;;;;;;6.80;100.00;96515.38;5064199;28;20037;-89
2023/01/09 05:21:58;;;;;;;15.60;3.30;;;;;;;6.72;100.00;96540.00;5065085;28;20029;-88
2023/01/09 05:24:24;;;;;;;12.20;2.92;;;;;;;6.56;100.00;96531.88;5062602;28;20043;-86
2023/01/09 05:26:54;;;;;;;15.82;2.70;;;;;;;6.71;100.00;96538.41;5063243;28;20506;-87
2023/01/09 05:29:19;;;;;;;8.68;2.63;;;;;;;6.63;100.00;96557.03;5060710;28;20082;-89
2023/01/09 05:31:46;;;;;;;16.70;3.15;;;;;;;6.46;100.00;96547.31;5064550;28;20032;-89
2023/01/09 05:34:15;;;;;;;9.68;3.78;;;;;;;6.66;100.00;96562.56;5062549;28;20079;-88
2023/01/09 05:36:41;;;;;;;15.00;3.38;;;;;;;6.92;100.00;96565.69;5062393;28;20037;-89
2023/01/09 05:39:07;;;;;;;20.27;3.03;;;;;;;6.85;100.00;96567.63;5066852;28;20363;-88
2023/01/09 05:41:32;;;;;;;14.23;3.53;;;;;;;6.71;100.00;96565.28;5062528;28;20378;-87
2023/01/09 05:43:58;;;;;;;13.60;3.83;;;;;;;6.66;100.00;96570.38;5062383;28;20044;-87
2023/01/09 05:46:23;;;;;;;15.38;4.28;;;;;;;6.57;100.00;96571.78;5058067;28;20532;-86
2023/01/09 05:48:49;;;;;;;11.70;3.30;;;;;;;6.74;100.00;96573.69;5062786;28;20452;-86
2023/01/09 05:51:14;;;;;;;12.65;2.85;;;;;;;6.68;100.00;96570.97;5062288;28;20052;-88
2023/01/09 05:53:40;;;;;;;14.75;3.63;;;;;;;6.89;100.00;96581.00;5060567;28;20036;-87
2023/01/09 05:56:05;;;;;;;14.50;3.33;;;;;;;6.45;100.00;96587.44;5058478;28;20032;-87
2023/01/09 05:58:31;;;;;;;10.98;2.90;;;;;;;6.49;100.00;96590.38;5060027;28;20029;-87
2023/01/09 06:01:00;;;;;;;15.95;3.45;;;;;;;6.72;100.00;96602.56;5064410;28;20049;-87
2023/01/09 06:03:25;;;;;;;17.25;3.88;;;;;;;6.81;100.00;96589.97;5063509;28;20064;-87
2023/01/09 06:05:51;;;;;;;10.55;2.80;;;;;;;6.56;100.00;96593.66;5060248;28;20107;-86
2023/01/09 06:08:16;;;;;;;18.48;3.33;;;;;;;6.62;100.00;96587.50;5059810;28;20033;-85
2023/01/09 06:10:44;;;;;;;13.70;2.80;;;;;;;6.54;100.00;96601.69;5063520;28;20528;-87
2023/01/09 06:13:09;;;;;;;17.38;3.28;;;;;;;6.57;100.00;96596.00;5060950;28;20478;-88
2023/01/09 06:15:35;;;;;;;12.30;2.75;;;;;;;6.23;100.00;96621.88;5061291;28;20025;-86
2023/01/09 06:18:00;;;;;;;16.42;2.97;;;;;;;6.31;100.00;96622.56;5069765;28;20020;-87
2023/01/09 06:20:26;;;;;;;15.25;3.05;;;;;;;6.40;100.00;96611.56;5063836;28;20036;-87
2023/01/09 06:22:52;;;;;;;20.00;4.38;;;;;;;6.50;100.00;96623.25;5059787;28;20033;-88
2023/01/09 06:25:17;;;;;;;16.35;3.63;;;;;;;6.81;100.00;96631.69;5064225;28;20032;-87
2023/01/09 06:27:43;;;;;;;20.02;3.40;;;;;;;6.47;100.00;96618.47;5063433;28;20049;-86
2023/01/09 06:30:10;;;;;;;14.93;3.50;;;;;;;6.65;100.00;96625.38;5064936;28;20033;-87
2023/01/09 06:32:35;;;;;;;14.82;3.70;;;;;;;6.57;100.00;96637.72;5066185;28;20039;-87
2023/01/09 06:35:01;;;;;;;16.15;3.47;;;;;;;6.72;100.00;96629.44;5048206;28;20094;-88
2023/01/09 06:37:27;;;;;;;17.45;3.63;;;;;;;6.61;100.00;96638.06;5061493;28;20038;-89
2023/01/09 06:39:53;;;;;;;14.07;2.95;;;;;;;6.51;100.00;96622.22;5067814;28;20040;-88
2023/01/09 06:42:19;;;;;;;17.30;3.25;;;;;;;6.40;100.00;96653.25;5065925;28;20041;-87
2023/01/09 06:44:45;;;;;;;20.98;3.28;;;;;;;6.56;100.00;96659.59;5062713;28;20032;-86
2023/01/09 06:47:10;;;;;;;11.27;3.38;;;;;;;6.62;100.00;96670.16;5063791;28;20033;-88
2023/01/09 06:49:36;;;;;;;9.55;3.17;;;;;;;6.64;100.00;96661.06;5063968;28;20115;-88
2023/01/09 06:52:04;;;;;;;9.52;2.70;;;;;;;6.69;100.00;96669.00;5064773;28;20021;-86
2023/01/09 06:54:30;;;;;;;9.38;3.05;;;;;;;6.69;100.00;96673.41;5059014;28;20053;-86
2023/01/09 06:56:56;;;;;;;18.40;3.58;;;;;;;6.82;100.00;96667.97;5067800;28;20040;-87
2023/01/09 06:59:21;;;;;;;7.40;2.80;;;;;;;6.82;100.00;96661.97;5050156;28;20037;-86
2023/01/09 07:01:47;;;;;;;19.23;4.05;;;;;;;6.35;100.00;96681.81;5065834;28;20052;-87
2023/01/09 07:04:12;;;;;;;9.40;4.07;;;;;;;6.32;100.00;96660.63;5062947;28;20482;-91
2023/01/09 07:06:40;;;;;;;9.52;4.13;;;;;;;6.36;100.00;96695.63;5065288;28;20159;-89
2023/01/09 07:09:05;;;;;;;11.35;3.47;;;;;;;6.14;100.00;96676.13;5076977;28;20062;-89
2023/01/09 07:11:32;;;;;;;9.00;2.80;;;;;;;6.46;100.00;96689.84;5051163;28;20472;-90
2023/01/09 07:14:05;;;;;;;6.68;2.50;;;;;;;6.74;100.00;96709.25;5066256;28;20041;-89
2023/01/09 07:16:31;;;;;;;5.93;2.63;;;;;;;6.31;100.00;96701.53;5048262;28;20029;-86
2023/01/09 07:18:56;;;;;;;8.68;3.50;;;;;;;5.94;100.00;96712.06;5061969;28;20055;-91
2023/01/09 07:21:22;;;;;;;7.63;3.45;;;;;;;6.29;100.00;96701.72;5051860;28;20482;-89
2023/01/09 07:23:48;;;;;;;8.40;4.07;;;;;;;6.06;100.00;96718.09;5067801;28;20510;-89
2023/01/09 07:26:17;;;;;;;7.07;3.25;;;;;;;5.58;100.00;96668.47;5065029;28;20029;-88
2023/01/09 07:28:44;;;;;;;8.23;3.95;;;;;;;6.08;100.00;96708.25;5065771;28;20024;-88
2023/01/09 07:31:13;;;;;;;9.45;4.93;;;;;;;5.84;100.00;96696.97;5061620;28;20390;-87
2023/01/09 07:33:39;;;;;;;12.70;6.55;;;;;;;6.40;100.00;96747.06;5060428;28;20025;-88
2023/01/09 07:36:04;;;;;;;18.63;9.45;;;;;;;6.73;100.00;96747.53;5044173;28;20056;-91
2023/01/09 07:38:31;;;;;;;18.20;7.65;;;;;;;6.50;100.00;96714.47;5055184;28;20040;-87
2023/01/09 07:40:57;;;;;;;13.93;7.90;;;;;;;6.41;100.00;96730.41;5046220;28;20055;-85
2023/01/09 07:43:23;;;;;;;19.00;8.73;;;;;;;6.57;100.00;96749.03;5068922;28;20032;-91
2023/01/09 07:45:49;;;;;;;10.75;6.35;;;;;;;6.30;100.00;96739.00;5061690;28;20550;-88
2023/01/09 07:48:14;;;;;;;13.60;6.22;;;;;;;6.46;100.00;96742.78;5065653;28;20044;-89
2023/01/09 07:50:40;;;;;;;10.60;6.13;;;;;;;6.50;100.00;96758.75;5065467;28;20056;-90
2023/01/09 07:53:05;;;;;;;11.90;6.03;;;;;;;6.88;100.00;96788.84;5046644;28;20119;-84
2023/01/09 07:55:31;;;;;;;8.90;5.13;;;;;;;6.84;100.00;96788.50;5059204;28;20435;-83
2023/01/09 07:57:57;;;;;;;7.53;5.13;;;;;;;6.78;100.00;96799.03;5065161;28;20033;-89
2023/01/09 08:00:22;;;;;;;13.57;4.93;;;;;;;6.81;100.00;96811.59;5065282;28;20055;-88
2023/01/09 08:02:52;;;;;;;7.90;5.05;;;;;;;6.99;100.00;96824.56;5067320;28;20033;-87
2023/01/09 08:05:18;;;;;;;7.97;5.47;;;;;;;6.94;100.00;96803.56;5062673;28;20364;-87
2023/01/09 08:07:44;;;;;;;5.32;4.38;;;;;;;7.37;100.00;96851.22;5066990;28;20056;-86
2023/01/09 08:10:10;;;;;;;7.78;4.97;;;;;;;7.02;100.00;96843.38;5059610;28;20025;-89
2023/01/09 08:12:36;;;;;;;7.22;4.45;;;;;;;7.14;100.00;96857.22;5048742;28;20033;-87
2023/01/09 08:15:02;;;;;;;6.68;4.05;;;;;;;7.38;100.00;96875.50;5059631;28;20032;-88
2023/01/09 08:17:27;;;;;;;6.13;3.55;;;;;;;7.28;100.00;96866.44;5060266;28;20062;-87
2023/01/09 08:19:53;;;;;;;5.85;3.40;;;;;;;7.39;100.00;96882.31;5058001;28;20036;-88
2023/01/09 08:22:18;;;;;;;4.07;2.65;;;;;;;6.81;100.00;96876.78;5061880;28;20033;-89
2023/01/09 08:24:44;;;;;;;6.95;2.60;;;;;;;6.94;100.00;96892.25;5062356;28;20044;-89
2023/01/09 08:27:10;;;;;;;6.68;2.22;;;;;;;6.99;100.00;96894.97;5062552;28;20391;-89
2023/01/09 08:29:35;;;;;;;7.07;2.15;;;;;;;7.14;100.00;96888.53;5060990;28;20040;-90
2023/01/09 08:32:02;;;;;;;4.70;2.00;;;;;;;6.89;100.00;96881.72;5072182;28;20088;-87
2023/01/09 08:34:27;;;;;;;5.88;2.17;;;;;;;6.98;100.00;96916.09;5062155;28;20035;-90
2023/01/09 08:36:53;;;;;;;5.05;1.95;;;;;;;7.02;100.00;96917.22;5048209;28;20033;-88
2023/01/09 08:48:15;;;;;;;2.05;1.08;;;;;;;5.12;100.00;96906.50;4860859;29;20042;-90
2023/01/09 08:50:48;;;;;;;4.95;1.15;;;;;;;5.19;100.00;96883.81;4861925;29;20042;-90
2023/01/09 08:53:14;;;;;;;1.88;1.00;;;;;;;5.13;100.00;96884.69;4842367;29;20046;-91
2023/01/09 08:55:40;;;;;;;2.83;0.88;;;;;;;5.71;100.00;96948.63;4844071;29;20042;-89
2023/01/09 08:58:06;;;;;;;5.80;1.50;;;;;;;5.52;100.00;96924.38;4834948;29;20063;-89
2023/01/09 09:00:32;;;;;;;5.90;1.20;;;;;;;5.32;100.00;96929.75;4834906;29;20117;-89
2023/01/09 09:02:59;;;;;;;3.97;1.17;;;;;;;5.60;100.00;96925.09;4857888;29;20378;-90
2023/01/09 09:05:33;;;;;;;3.45;1.65;;;;;;;6.13;100.00;96997.53;4978089;23;20029;31
2023/01/09 09:12:00;;;;;;;5.20;2.00;;;;;;;6.32;100.00;96948.03;4835896;29;20115;-90
2023/01/09 09:17:09;;;;;;;6.53;2.22;;;;;;;6.45;100.00;96973.13;4830163;29;20549;-89
2023/01/09 09:19:35;;;;;;;4.25;1.83;;;;;;;6.58;100.00;96961.75;4845292;29;20137;-90
2023/01/09 09:22:01;;;;;;;9.20;2.05;;;;;;;6.58;100.00;96980.00;4836573;29;20401;-85
2023/01/09 09:24:26;;;;;;;12.00;2.00;;;;;;;6.41;100.00;97009.25;4839512;29;20057;-86
2023/01/09 09:26:52;;;;;;;12.43;2.60;;;;;;;6.82;100.00;97013.97;4840854;29;20087;-90
2023/01/09 09:29:17;;;;;;;9.50;2.47;;;;;;;6.55;100.00;97014.31;4828027;29;20042;-83
2023/01/09 09:31:43;;;;;;;12.35;3.00;;;;;;;6.74;100.00;97012.47;4832886;29;20449;-87
2023/01/09 09:34:09;;;;;;;13.43;3.20;;;;;;;6.93;100.00;97034.13;4843389;29;20030;-86
2023/01/09 09:36:35;;;;;;;18.10;3.00;;;;;;;6.54;100.00;97036.97;4841920;29;20740;-86
2023/01/09 09:39:01;;;;;;;10.13;2.78;;;;;;;6.76;100.00;97035.72;4829118;29;20052;-87
2023/01/09 09:44:42;;;;;;;15.35;2.92;;;;;;;6.68;100.00;97063.69;4838319;29;20047;-87
2023/01/09 09:47:11;;;;;;;7.13;2.50;;;;;;;7.04;100.00;97084.75;4854936;29;20095;-90
2023/01/09 09:49:55;;;;;;;13.52;3.33;;;;;;;7.09;100.00;97081.47;4861934;29;20087;-89
2023/01/09 09:52:24;;;;;;;16.67;5.60;;;;;;;7.00;100.00;97084.38;4858637;29;20119;-90
2023/01/09 09:54:51;;;;;;;12.73;5.15;;;;;;;6.88;100.00;97078.31;4832911;29;20129;-90
2023/01/09 09:57:20;;;;;;;16.42;4.43;;;;;;;7.29;100.00;97065.53;4846077;29;20043;-89
2023/01/09 09:59:50;;;;;;;13.32;5.20;;;;;;;7.53;100.00;97089.91;4831706;29;20054;-90
2023/01/09 10:02:46;;;;;;;12.70;4.78;;;;;;;7.66;100.00;97109.00;4832114;29;20051;-89
2023/01/09 10:05:19;;;;;;;25.95;3.50;;;;;;;7.13;100.00;97114.72;4845799;29;20062;-91
2023/01/09 10:07:49;;;;;;;14.73;2.80;;;;;;;7.07;100.00;97120.00;4831689;29;20050;-91
2023/01/09 10:10:46;;;;;;;12.77;3.17;;;;;;;7.12;100.00;97133.22;4848335;29;20133;-90
2023/01/09 10:16:09;;;;;;;15.50;2.92;;;;;;;7.41;100.00;97149.91;4833601;29;20022;-91
2023/01/09 10:18:38;;;;;;;13.20;2.67;;;;;;;7.14;100.00;97157.28;4833070;29;20034;-89
2023/01/09 10:21:32;;;;;;;10.82;3.05;;;;;;;7.10;100.00;97153.50;4833361;29;20027;-90
2023/01/09 10:24:08;;;;;;;19.80;4.65;;;;;;;7.17;100.00;97159.44;4848829;29;20069;-90
2023/01/09 10:26:42;;;;;;;11.70;3.45;;;;;;;7.10;100.00;97166.56;4847535;29;20046;-91
2023/01/09 10:29:46;;;;;;;11.50;2.95;;;;;;;7.54;100.00;97162.00;4832869;29;20406;-89
2023/01/09 10:32:34;;;;;;;13.90;3.65;;;;;;;7.65;100.00;97167.47;4828529;29;20152;-90
2023/01/09 10:35:47;;;;;;;25.98;3.95;;;;;;;7.72;100.00;97189.09;4847482;29;20022;-91
2023/01/09 10:38:19;;;;;;;24.75;5.75;;;;;;;7.50;100.00;97160.03;4816506;29;20058;-91
2023/01/09 10:41:08;;;;;;;23.92;4.38;;;;;;;7.78;100.00;97180.34;4851445;29;20057;-89
2023/01/09 10:43:37;;;;;;;26.77;4.93;;;;;;;7.48;100.00;97189.00;4849669;29;20049;-90
2023/01/09 10:46:10;;;;;;;18.90;4.32;;;;;;;7.50;100.00;97196.59;4865954;29;20042;-89
2023/01/09 10:48:45;;;;;;;23.23;5.13;;;;;;;7.45;100.00;97205.06;4864972;29;20073;-89
2023/01/09 10:51:17;;;;;;;;;;;;;;;7.34;100.00;97213.66;4840428;29;20038;-85
2023/01/09 10:53:46;;;;;;;30.55;5.55;;;;;;;7.39;100.00;97200.75;4844331;29;19917;-89
2023/01/09 10:56:31;;;;;;;31.10;4.53;;;;;;;7.49;100.00;97211.47;4815418;29;20053;-90
2023/01/09 10:58:58;;;;;;;18.48;4.65;;;;;;;7.49;100.00;97189.78;4856519;29;20033;-89
2023/01/09 11:01:29;;;;;;;29.25;5.43;;;;;;;7.94;100.00;97217.31;4856797;29;20393;-90
2023/01/09 11:03:57;;;;;;;29.02;4.28;;;;;;;7.88;100.00;97220.84;4828386;29;20038;-90
2023/01/09 11:06:44;;;;;;;16.13;5.03;;;;;;;7.96;100.00;97221.31;4845811;29;20069;-89
2023/01/09 11:09:10;;;;;;;24.15;5.35;;;;;;;7.77;100.00;97238.84;4844219;29;20532;-89
2023/01/09 11:11:43;;;;;;;17.27;4.65;;;;;;;8.15;100.00;97232.50;4846066;29;20048;-89
2023/01/09 11:14:17;;;;;;;19.90;3.45;;;;;;;7.97;100.00;97253.44;4847670;29;20044;-90
2023/01/09 11:17:17;;;;;;;18.35;5.38;;;;;;;7.63;100.00;97245.22;4862938;29;20038;-90
2023/01/09 11:20:00;;;;;;;17.30;3.95;;;;;;;7.68;100.00;97234.94;4807582;29;20042;-88
2023/01/09 11:22:26;;;;;;;12.20;2.80;;;;;;;7.76;100.00;97229.41;4863053;29;20046;-88
2023/01/09 11:25:02;;;;;;;19.65;4.00;;;;;;;7.99;100.00;97261.88;4840118;29;20042;-89
2023/01/09 11:27:28;;;;;;;12.45;2.67;;;;;;;7.53;100.00;97207.41;4845664;29;20117;-89
2023/01/09 11:30:13;;;;;;;19.90;2.83;;;;;;;7.46;100.00;97245.81;4828334;29;20054;-88
2023/01/09 11:32:39;;;;;;;33.75;5.53;;;;;;;7.48;100.00;97259.47;4843519;29;20519;-89
2023/01/09 11:35:14;;;;;;;14.57;3.50;;;;;;;7.36;100.00;97258.59;4828657;29;20489;-88
2023/01/09 11:37:39;;;;;;;22.55;3.42;;;;;;;7.89;100.00;97275.44;4837829;29;20030;-91
2023/01/09 11:40:17;;;;;;;17.98;3.97;;;;;;;7.92;100.00;97269.78;4848310;29;20125;-89
2023/01/09 11:43:10;;;;;;;16.92;2.67;;;;;;;8.13;100.00;97262.47;4848697;29;20042;-91
2023/01/09 11:45:47;;;;;;;15.70;3.30;;;;;;;7.74;100.00;97249.72;4830648;29;20045;-87
2023/01/09 11:48:28;;;;;;;22.83;4.32;;;;;;;7.71;100.00;97286.72;4838832;29;20489;-88
2023/01/09 11:50:57;;;;;;;13.38;2.95;;;;;;;8.05;100.00;97281.88;4834905;29;20042;-90
2023/01/09 11:53:25;;;;;;;13.77;2.55;;;;;;;7.67;100.00;97278.53;4832927;29;20081;-89
2023/01/09 11:56:01;;;;;;;15.48;4.15;;;;;;;7.66;100.00;97283.97;4833843;29;20510;-90
2023/01/09 11:58:34;;;;;;;15.43;3.42;;;;;;;7.65;100.00;97308.47;4835686;29;20029;-88
2023/01/09 12:01:06;;;;;;;9.40;3.05;;;;;;;7.68;100.00;97318.50;4841359;29;20094;-87
2023/01/09 12:03:41;;;;;;;17.45;3.88;;;;;;;7.75;100.00;97314.00;4852595;29;20034;-88